createdAt,value
2018-11-06T04:16:50.147Z,159.82
2018-11-06T04:18:52.325Z,254.70
2018-11-06T04:20:54.506Z,185.00
2018-11-06T04:22:56.675Z,310.23
2018-11-06T04:24:58.837Z,227.13
2018-11-06T04:27:01.005Z,319.57
2018-11-06T04:29:04.241Z,173.70
2018-11-06T04:31:06.413Z,257.30
2018-11-06T04:33:08.613Z,260.43
2018-11-06T04:35:11.394Z,250.73
2018-11-06T04:37:13.556Z,210.50
2018-11-06T04:39:15.787Z,196.00
2018-11-06T04:41:18.173Z,282.27
2018-11-06T04:43:20.377Z,344.53
2018-11-06T04:45:22.618Z,313.20
2018-11-06T04:47:24.839Z,174.23
2018-11-06T04:49:27.113Z,236.10
2018-11-06T04:51:29.585Z,195.83
2018-11-06T04:53:33.569Z,290.57
2018-11-06T04:55:35.729Z,364.07
2018-11-06T04:57:37.930Z,228.23
2018-11-06T04:59:40.096Z,150.97
2018-11-06T05:01:42.274Z,213.70
2018-11-06T05:03:45.326Z,159.30
2018-11-06T05:05:47.532Z,349.70
2018-11-06T05:07:49.825Z,146.50
2018-11-06T05:09:52.441Z,249.77
2018-11-06T05:11:54.612Z,350.60
2018-11-06T05:13:56.786Z,270.23
2018-11-06T05:15:58.984Z,182.13
2018-11-06T05:18:01.146Z,353.00
2018-11-06T05:20:04.062Z,255.20
2018-11-06T05:22:06.257Z,247.33
2018-11-06T05:24:08.485Z,276.00
2018-11-06T05:26:10.758Z,236.50
2018-11-06T05:28:13.234Z,193.40
2018-11-06T05:30:15.449Z,294.57
2018-11-06T05:32:17.672Z,272.43
2018-11-06T05:34:19.930Z,178.70
2018-11-06T05:36:22.125Z,203.53
2018-11-06T05:38:24.303Z,252.00
2018-11-06T05:40:32.568Z,198.00
2018-11-06T05:42:34.798Z,312.23
2018-11-06T05:44:36.962Z,208.23
2018-11-06T05:46:39.318Z,177.05
2018-11-06T05:48:41.514Z,159.20
2018-11-06T05:50:43.747Z,292.87
2018-11-06T05:52:46.263Z,280.00
2018-11-06T05:54:48.482Z,318.13
2018-11-06T05:56:50.657Z,273.10
2018-11-06T05:58:53.018Z,296.57
2018-11-06T06:00:55.240Z,378.45
2018-11-06T06:02:57.433Z,269.10
2018-11-06T06:04:59.870Z,311.23
2018-11-06T06:07:02.069Z,378.30
2018-11-06T06:09:05.410Z,270.53
2018-11-06T06:11:07.834Z,336.20
2018-11-06T06:13:10.972Z,287.53
2018-11-06T06:15:13.182Z,272.17
2018-11-06T06:17:15.480Z,191.27
2018-11-06T06:19:17.610Z,431.90
2018-11-06T06:21:19.787Z,177.87
2018-11-06T06:23:22.261Z,390.40
2018-11-06T06:25:24.465Z,252.30
2018-11-06T06:27:26.680Z,327.13
2018-11-06T06:29:29.080Z,286.20
2018-11-06T06:31:31.258Z,313.17
2018-11-06T06:33:33.431Z,198.60
2018-11-06T06:35:35.651Z,303.47
2018-11-06T06:37:37.836Z,259.50
2018-11-06T06:39:40.010Z,117.40
2018-11-06T06:41:42.198Z,228.00
2018-11-06T06:43:44.358Z,253.33
2018-11-06T06:45:46.537Z,347.07
2018-11-06T06:47:48.763Z,167.27
2018-11-06T06:49:50.930Z,269.17
2018-11-06T06:51:53.075Z,241.97
2018-11-06T06:53:55.535Z,242.30
2018-11-06T06:55:57.662Z,242.17
2018-11-06T06:57:59.822Z,291.13
2018-11-06T07:00:02.013Z,273.80
2018-11-06T07:02:04.228Z,233.27
2018-11-06T07:04:06.423Z,285.33
2018-11-06T07:06:08.846Z,255.70
2018-11-06T07:08:11.055Z,211.97
2018-11-06T07:10:14.709Z,292.67
2018-11-06T07:12:16.893Z,193.90
2018-11-06T07:14:19.311Z,210.07
2018-11-06T07:16:21.491Z,217.07
2018-11-06T07:18:23.870Z,121.20
2018-11-06T07:20:26.012Z,181.47
2018-11-06T07:22:28.173Z,168.73
2018-11-06T07:24:30.337Z,161.37
2018-11-06T07:26:33.009Z,165.67
2018-11-06T07:28:35.179Z,183.18
2018-11-06T07:30:50.974Z,223.90
2018-11-06T07:32:53.164Z,102.70
2018-11-06T07:34:55.487Z,133.20
2018-11-06T07:36:57.505Z,212.57
2018-11-06T07:38:59.729Z,154.10
2018-11-06T07:41:02.075Z,166.03
2018-11-06T07:43:04.627Z,184.27
2018-11-06T07:45:07.758Z,136.23
2018-11-06T07:47:09.917Z,167.63
2018-11-06T07:49:12.389Z,221.03
2018-11-06T07:51:15.505Z,88.50
2018-11-06T07:53:17.642Z,186.07
2018-11-06T07:55:19.930Z,124.83
2018-11-06T07:57:24.242Z,153.33
2018-11-06T07:59:26.395Z,166.73
2018-11-06T08:01:28.579Z,135.90
2018-11-06T08:03:30.725Z,136.93
2018-11-06T08:05:32.886Z,94.60
2018-11-06T08:07:35.185Z,153.30
2018-11-06T08:09:37.403Z,110.93
2018-11-06T08:11:40.354Z,140.33
2018-11-06T08:13:42.544Z,116.53
2018-11-06T08:15:44.717Z,103.73
2018-11-06T08:17:47.017Z,85.53
2018-11-06T08:19:49.351Z,135.27
2018-11-06T08:21:51.503Z,109.43
2018-11-06T08:23:53.688Z,173.57
2018-11-06T08:25:55.899Z,129.17
2018-11-06T08:27:58.058Z,74.67
2018-11-06T08:30:00.214Z,127.30
2018-11-06T08:32:02.687Z,137.80
2018-11-06T08:34:06.548Z,143.00
2018-11-06T08:36:08.706Z,104.67
2018-11-06T08:38:10.875Z,62.10
2018-11-06T08:40:14.225Z,112.83
2018-11-06T08:42:16.392Z,57.60
2018-11-06T08:44:18.673Z,94.67
2018-11-06T08:46:20.826Z,96.63
2018-11-06T08:48:22.990Z,82.70
2018-11-06T08:50:25.157Z,88.63
2018-11-06T08:52:27.309Z,125.50
2018-11-06T08:54:29.517Z,102.00
2018-11-06T08:56:31.962Z,120.80
2018-11-06T08:58:34.110Z,80.63
2018-11-06T09:00:36.290Z,99.10
2018-11-06T09:02:38.636Z,170.93
2018-11-06T09:04:40.690Z,91.43
2018-11-06T09:06:42.913Z,113.47
2018-11-06T09:08:45.102Z,117.23
2018-11-06T09:10:47.227Z,90.97
2018-11-06T09:12:49.892Z,110.60
2018-11-06T09:14:52.034Z,151.53
2018-11-06T09:16:54.337Z,143.10
2018-11-06T09:18:56.798Z,173.17
2018-11-06T09:20:58.952Z,81.53
2018-11-06T09:23:01.095Z,111.83
2018-11-06T09:25:04.053Z,142.20
2018-11-06T09:27:06.210Z,111.80
2018-11-06T09:29:08.362Z,70.27
2018-11-06T09:31:10.577Z,118.93
2018-11-06T09:33:13.122Z,109.50
2018-11-06T09:35:15.513Z,68.40
2018-11-06T09:37:17.601Z,56.60
2018-11-06T09:39:19.921Z,91.33
2018-11-06T09:41:22.214Z,82.07
2018-11-06T09:43:24.347Z,80.17
2018-11-06T09:45:26.558Z,57.47
2018-11-06T09:47:28.741Z,53.10
2018-11-06T09:49:30.895Z,64.57
2018-11-06T09:51:33.069Z,66.53
2018-11-06T09:53:35.245Z,52.13
2018-11-06T09:55:37.430Z,141.07
2018-11-06T09:57:39.590Z,107.03
2018-11-06T09:59:41.725Z,50.47
2018-11-06T10:01:44.141Z,54.83
2018-11-06T10:03:46.294Z,60.70
2018-11-06T10:05:48.485Z,87.53
2018-11-06T10:07:50.817Z,52.30
2018-11-06T10:09:52.835Z,60.83
2018-11-06T10:11:55.037Z,102.37
2018-11-06T10:13:57.180Z,51.37
2018-11-06T10:15:59.348Z,54.70
2018-11-06T10:18:01.544Z,59.30
2018-11-06T10:20:04.626Z,79.27
2018-11-06T10:22:06.907Z,91.40
2018-11-06T10:24:09.333Z,53.33
2018-11-06T10:26:11.511Z,50.13
2018-11-06T10:28:13.670Z,44.30
2018-11-06T10:30:17.085Z,57.10
2018-11-06T10:32:19.259Z,45.73
2018-11-06T10:34:21.738Z,81.87
2018-11-06T10:36:24.044Z,58.07
2018-11-06T10:38:26.244Z,78.57
2018-11-06T10:40:28.463Z,59.07
2018-11-06T10:42:30.705Z,50.23
2018-11-06T10:44:32.886Z,53.63
2018-11-06T10:46:35.493Z,56.80
2018-11-06T10:48:37.717Z,76.67
2018-11-06T10:50:40.026Z,47.73
2018-11-06T10:52:42.906Z,57.87
2018-11-06T10:54:45.079Z,74.77
2018-11-06T10:56:47.263Z,67.07
2018-11-06T10:58:49.458Z,79.63
2018-11-06T11:00:57.253Z,78.53
2018-11-06T11:03:05.522Z,68.17
2018-11-06T11:05:07.700Z,63.13
2018-11-06T11:07:09.894Z,59.10
2018-11-06T11:09:12.049Z,53.70
2018-11-06T11:11:14.235Z,51.73
2018-11-06T11:13:16.481Z,51.30
2018-11-06T11:15:18.664Z,50.63
2018-11-06T11:17:20.846Z,55.70
2018-11-06T11:19:23.030Z,48.37
2018-11-06T11:21:25.466Z,45.90
2018-11-06T11:23:27.677Z,47.00
2018-11-06T11:25:29.866Z,44.37
2018-11-06T11:27:31.978Z,48.23
2018-11-06T11:29:34.149Z,45.47
2018-11-06T11:31:36.364Z,43.07
2018-11-06T11:33:38.529Z,89.00
2018-11-06T11:35:40.679Z,56.10
2018-11-06T11:37:43.146Z,42.73
2018-11-06T11:39:45.397Z,37.47
2018-11-06T11:41:47.562Z,37.70
2018-11-06T11:43:49.725Z,38.73
2018-11-06T11:45:52.408Z,38.07
2018-11-06T11:47:54.607Z,33.60
2018-11-06T11:49:56.810Z,38.90
2018-11-06T11:51:58.950Z,33.93
2018-11-06T11:54:01.133Z,33.17
2018-11-06T11:56:03.314Z,33.90
2018-11-06T11:58:05.463Z,35.20
2018-11-06T12:00:08.732Z,31.50
2018-11-06T12:02:10.832Z,34.37
2018-11-06T12:04:13.473Z,32.17
2018-11-06T12:06:15.653Z,32.27
2018-11-06T12:08:17.801Z,30.37
2018-11-06T12:10:19.987Z,30.37
2018-11-06T12:12:22.145Z,29.10
2018-11-06T12:14:24.330Z,31.33
2018-11-06T12:16:26.486Z,29.30
2018-11-06T12:18:28.649Z,30.57
2018-11-06T12:20:30.965Z,31.13
2018-11-06T12:22:33.124Z,31.47
2018-11-06T12:24:35.438Z,30.53
2018-11-06T12:26:38.014Z,30.37
2018-11-06T12:28:40.167Z,30.13
2018-11-06T12:30:42.339Z,31.27
2018-11-06T12:32:44.633Z,30.97
2018-11-06T12:34:46.689Z,31.87
2018-11-06T12:36:48.854Z,31.77
2018-11-06T12:38:51.017Z,33.03
2018-11-06T12:40:53.154Z,30.60
2018-11-06T12:42:55.359Z,29.83
2018-11-06T12:44:57.626Z,31.50
2018-11-06T12:47:00.406Z,31.00
2018-11-06T12:49:02.560Z,28.17
2018-11-06T12:51:05.306Z,30.33
2018-11-06T12:53:07.461Z,30.10
2018-11-06T12:55:10.842Z,33.77
2018-11-06T12:57:13.001Z,36.27
2018-11-06T12:59:15.254Z,31.67
2018-11-06T13:01:17.386Z,26.80
2018-11-06T13:03:19.770Z,28.80
2018-11-06T13:05:21.902Z,29.27
2018-11-06T13:07:24.101Z,27.83
2018-11-06T13:09:26.257Z,27.43
2018-11-06T13:11:28.507Z,28.50
2018-11-06T13:13:30.670Z,28.23
2018-11-06T13:15:32.894Z,28.37
2018-11-06T13:17:35.654Z,27.67
2018-11-06T13:19:37.815Z,26.17
2018-11-06T13:21:39.961Z,27.80
2018-11-06T13:23:42.123Z,26.13
2018-11-06T13:25:44.362Z,27.20
2018-11-06T13:27:46.566Z,26.43
2018-11-06T13:29:48.698Z,26.57
2018-11-06T13:31:50.842Z,25.53
2018-11-06T13:33:53.393Z,28.80
2018-11-06T13:35:55.626Z,26.50
2018-11-06T13:37:57.769Z,27.10
2018-11-06T13:39:59.966Z,25.00
2018-11-06T13:42:02.194Z,27.73
2018-11-06T13:44:04.726Z,26.27
2018-11-06T13:46:06.753Z,24.20
2018-11-06T13:48:08.925Z,26.20
2018-11-06T13:50:11.083Z,29.43
2018-11-06T13:52:13.462Z,26.50
2018-11-06T13:54:15.577Z,24.53
2018-11-06T13:56:17.741Z,26.30
2018-11-06T13:58:20.053Z,23.77
2018-11-06T14:00:22.218Z,25.20
2018-11-06T14:02:24.571Z,25.50
2018-11-06T14:04:26.852Z,28.17
2018-11-06T14:06:28.897Z,24.90
2018-11-06T14:08:31.098Z,24.57
2018-11-06T14:10:33.266Z,27.43
2018-11-06T14:12:35.441Z,25.03
2018-11-06T14:14:37.612Z,27.30
2018-11-06T14:16:39.759Z,29.47
2018-11-06T14:18:41.894Z,28.20
2018-11-06T14:20:44.083Z,27.63
2018-11-06T14:22:46.249Z,28.47
2018-11-06T14:24:48.407Z,29.93
2018-11-06T14:26:50.729Z,27.53
2018-11-06T14:28:52.849Z,29.80
2018-11-06T14:30:55.002Z,29.77
2018-11-06T14:32:57.162Z,30.73
2018-11-06T14:34:59.303Z,33.53
2018-11-06T14:37:01.459Z,32.07
2018-11-06T14:39:05.139Z,31.40
2018-11-06T14:41:07.305Z,35.87
2018-11-06T14:43:09.449Z,35.07
2018-11-06T14:45:12.874Z,34.67
2018-11-06T14:47:15.066Z,34.87
2018-11-06T14:49:17.298Z,33.03
2018-11-06T14:51:19.409Z,34.23
2018-11-06T14:53:21.567Z,35.70
2018-11-06T14:55:23.830Z,31.50
2018-11-06T14:57:25.959Z,37.33
2018-11-06T14:59:28.114Z,35.73
2018-11-06T15:01:30.288Z,37.20
2018-11-06T15:03:32.457Z,47.63
2018-11-06T15:05:34.632Z,37.30
2018-11-06T15:07:36.819Z,41.27
2018-11-06T15:09:38.978Z,35.97
2018-11-06T15:11:41.159Z,39.40
2018-11-06T15:13:43.387Z,36.97
2018-11-06T15:15:45.537Z,39.20
2018-11-06T15:17:48.094Z,36.83
2018-11-06T15:19:50.253Z,36.83
2018-11-06T15:21:52.390Z,40.47
2018-11-06T15:23:54.546Z,36.10
2018-11-06T15:25:56.710Z,36.80
2018-11-06T15:27:58.851Z,37.40
2018-11-06T15:30:00.996Z,35.57
2018-11-06T15:32:03.200Z,39.30
2018-11-06T15:34:05.370Z,41.23
2018-11-06T15:36:07.544Z,37.83
2018-11-06T15:38:09.895Z,39.83
2018-11-06T15:40:13.733Z,40.30
2018-11-06T15:42:15.932Z,44.03
2018-11-06T15:44:18.150Z,41.03
2018-11-06T15:46:20.330Z,38.00
2018-11-06T15:48:22.541Z,45.20
2018-11-06T15:50:24.690Z,42.67
2018-11-06T15:52:26.835Z,43.60
2018-11-06T15:54:29.023Z,41.83
2018-11-06T15:56:31.686Z,41.63
2018-11-06T15:58:33.826Z,42.70
2018-11-06T16:00:36.000Z,42.70
2018-11-06T16:02:38.181Z,42.77
2018-11-06T16:04:40.345Z,42.70
2018-11-06T16:06:42.498Z,44.50
2018-11-06T16:08:44.682Z,46.63
2018-11-06T16:10:46.846Z,44.80
2018-11-06T16:12:49.012Z,43.23
2018-11-06T16:14:51.161Z,46.27
2018-11-06T16:16:53.357Z,47.53
2018-11-06T16:18:55.546Z,43.83
2018-11-06T16:20:57.775Z,42.10
2018-11-06T16:22:59.906Z,44.57
2018-11-06T16:25:02.070Z,44.50
2018-11-06T16:27:05.141Z,46.17
2018-11-06T16:29:07.596Z,48.87
2018-11-06T16:31:09.754Z,46.20
2018-11-06T16:33:11.921Z,48.90
2018-11-06T16:35:16.048Z,45.87
2018-11-06T16:37:18.503Z,47.37
2018-11-06T16:39:20.670Z,48.63
2018-11-06T16:41:22.865Z,48.37
2018-11-06T16:43:25.026Z,45.67
2018-11-06T16:45:27.177Z,50.20
2018-11-06T16:47:29.353Z,45.13
2018-11-06T16:49:31.532Z,47.43
2018-11-06T16:51:33.812Z,51.10
2018-11-06T16:53:36.017Z,52.47
2018-11-06T16:55:38.166Z,52.93
2018-11-06T16:57:41.315Z,45.63
2018-11-06T16:59:43.722Z,47.33
2018-11-06T17:01:45.855Z,49.77
2018-11-06T17:03:48.002Z,48.43
2018-11-06T17:05:50.282Z,50.00
2018-11-06T17:07:52.446Z,46.80
2018-11-06T17:09:54.604Z,49.00
2018-11-06T17:11:56.774Z,49.90
2018-11-06T17:13:58.945Z,46.13
2018-11-06T17:16:01.296Z,50.10
2018-11-06T17:18:03.751Z,47.73
2018-11-06T17:20:06.481Z,52.23
2018-11-06T17:22:09.351Z,48.90
2018-11-06T17:24:11.677Z,52.50
2018-11-06T17:26:13.875Z,57.07
2018-11-06T17:28:16.032Z,52.17
2018-11-06T17:30:18.774Z,50.93
2018-11-06T17:32:21.157Z,53.53
2018-11-06T17:34:23.328Z,51.77
2018-11-06T17:36:25.914Z,52.87
2018-11-06T17:38:28.073Z,59.77
2018-11-06T17:40:30.278Z,53.47
2018-11-06T17:42:32.453Z,57.43
2018-11-06T17:44:34.639Z,47.73
2018-11-06T17:46:36.806Z,51.90
2018-11-06T17:48:39.078Z,56.30
2018-11-06T17:50:44.462Z,49.10
2018-11-06T17:52:46.683Z,56.33
2018-11-06T17:54:48.845Z,49.83
2018-11-06T17:56:51.041Z,54.80
2018-11-06T17:58:53.182Z,53.40
2018-11-06T18:00:55.379Z,49.63
2018-11-06T18:02:57.542Z,53.83
2018-11-06T18:04:59.703Z,57.10
2018-11-06T18:07:02.212Z,52.60
2018-11-06T18:09:06.382Z,57.90
2018-11-06T18:11:08.569Z,48.90
2018-11-06T18:13:10.742Z,55.53
2018-11-06T18:15:12.906Z,53.63
2018-11-06T18:17:15.128Z,52.47
2018-11-06T18:19:17.282Z,53.63
2018-11-06T18:21:19.480Z,54.90
2018-11-06T18:23:21.649Z,48.53
2018-11-06T18:25:24.295Z,48.63
2018-11-06T18:27:26.414Z,51.60
2018-11-06T18:29:28.573Z,53.37
2018-11-06T18:31:30.911Z,57.57
2018-11-06T18:33:33.154Z,52.43
2018-11-06T18:35:35.339Z,45.77
2018-11-06T18:37:37.575Z,52.67
2018-11-06T18:39:39.762Z,50.40
2018-11-06T18:41:42.237Z,57.90
2018-11-06T18:43:44.709Z,52.50
2018-11-06T18:45:46.886Z,56.27
2018-11-06T18:47:49.131Z,53.33
2018-11-06T18:49:51.272Z,56.60
2018-11-06T18:51:53.440Z,53.83
2018-11-06T18:53:55.666Z,51.70
2018-11-06T18:55:58.094Z,51.07
2018-11-06T18:58:00.525Z,54.60
2018-11-06T19:00:03.034Z,57.90
2018-11-06T19:02:05.276Z,55.73
2018-11-06T19:04:07.458Z,53.87
2018-11-06T19:06:09.633Z,56.00
2018-11-06T19:08:11.911Z,60.43
2018-11-06T19:10:14.798Z,55.50
2018-11-06T19:12:16.995Z,52.73
2018-11-06T19:14:19.188Z,54.30
2018-11-06T19:16:21.360Z,51.27
2018-11-06T19:18:23.559Z,56.33
2018-11-06T19:20:25.774Z,57.50
2018-11-06T19:22:27.960Z,58.60
2018-11-06T19:24:30.166Z,60.20
2018-11-06T19:26:32.341Z,57.17
2018-11-06T19:28:34.638Z,54.40
2018-11-06T19:30:36.977Z,58.30
2018-11-06T19:32:39.151Z,57.23
2018-11-06T19:34:41.531Z,54.20
2018-11-06T19:36:43.724Z,58.17
2018-11-06T19:38:46.215Z,59.83
2018-11-06T19:40:48.634Z,55.20
2018-11-06T19:42:50.823Z,77.63
2018-11-06T19:44:53.034Z,61.30
2018-11-06T19:46:55.344Z,60.20
2018-11-06T19:48:57.596Z,55.47
2018-11-06T19:51:00.236Z,55.70
2018-11-06T19:53:02.520Z,53.63
2018-11-06T19:55:05.574Z,56.20
2018-11-06T19:57:07.919Z,61.47
2018-11-06T19:59:10.114Z,60.47
2018-11-06T20:01:13.145Z,53.40
2018-11-06T20:03:15.665Z,54.30
2018-11-06T20:05:18.075Z,59.93
2018-11-06T20:07:20.189Z,60.63
2018-11-06T20:09:22.399Z,55.93
2018-11-06T20:11:24.618Z,56.80
2018-11-06T20:13:26.795Z,61.57
2018-11-06T20:15:29.000Z,54.50
2018-11-06T20:17:31.213Z,59.60
2018-11-06T20:19:33.382Z,54.57
2018-11-06T20:21:35.621Z,54.60
2018-11-06T20:23:38.063Z,66.43
2018-11-06T20:25:40.827Z,56.37
2018-11-06T20:27:43.300Z,58.03
2018-11-06T20:29:45.530Z,57.70
2018-11-06T20:31:47.690Z,59.37
2018-11-06T20:33:50.103Z,53.77
2018-11-06T20:35:52.358Z,61.57
2018-11-06T20:37:54.612Z,56.73
2018-11-06T20:39:57.065Z,62.00
2018-11-06T20:41:59.314Z,59.63
2018-11-06T20:44:01.777Z,59.90
2018-11-06T20:46:04.333Z,56.87
2018-11-06T20:48:06.517Z,59.97
2018-11-06T20:50:10.847Z,58.73
2018-11-06T20:52:13.322Z,61.17
2018-11-06T20:54:15.507Z,70.63
2018-11-06T20:56:17.730Z,64.40
2018-11-06T20:58:19.945Z,68.87
2018-11-06T21:00:24.530Z,65.53
2018-11-06T21:02:26.722Z,61.33
2018-11-06T21:04:28.928Z,60.07
2018-11-06T21:06:31.130Z,58.80
2018-11-06T21:08:33.322Z,57.83
2018-11-06T21:10:35.543Z,64.73
2018-11-06T21:12:37.759Z,60.00
2018-11-06T21:14:39.962Z,67.90
2018-11-06T21:16:42.189Z,60.63
2018-11-06T21:18:44.429Z,60.23
2018-11-06T21:20:46.622Z,59.90
2018-11-06T21:22:48.837Z,60.73
2018-11-06T21:24:51.831Z,56.97
2018-11-06T21:26:53.983Z,61.10
2018-11-06T21:28:56.102Z,68.63
2018-11-06T21:30:58.295Z,62.63
2018-11-06T21:33:00.487Z,64.80
2018-11-06T21:35:02.761Z,63.73
2018-11-06T21:37:05.212Z,60.53
2018-11-06T21:39:07.514Z,73.23
2018-11-06T21:41:09.650Z,59.70
2018-11-06T21:43:11.862Z,63.00
2018-11-06T21:45:14.729Z,60.87
2018-11-06T21:47:16.874Z,70.80
2018-11-06T21:49:19.090Z,66.03
2018-11-06T21:51:21.284Z,64.63
2018-11-06T21:53:23.486Z,60.97
2018-11-06T21:55:25.692Z,61.53
2018-11-06T21:57:27.858Z,62.40
2018-11-06T21:59:30.179Z,59.77
2018-11-06T22:01:32.446Z,66.37
2018-11-06T22:03:34.597Z,62.17
2018-11-06T22:05:36.769Z,61.83
2018-11-06T22:07:40.114Z,65.30
2018-11-06T22:09:42.278Z,60.93
2018-11-06T22:11:44.421Z,63.57
2018-11-06T22:13:47.427Z,69.83
2018-11-06T22:16:02.494Z,64.70
2018-11-06T22:18:04.831Z,67.33
2018-11-06T22:20:07.799Z,65.57
2018-11-06T22:22:10.397Z,56.30
2018-11-06T22:24:13.002Z,64.00
2018-11-06T22:26:15.198Z,68.83
2018-11-06T22:28:17.550Z,68.27
2018-11-06T22:30:19.742Z,67.07
2018-11-06T22:32:22.046Z,64.43
2018-11-06T22:34:24.246Z,66.20
2018-11-06T22:36:26.418Z,63.47
2018-11-06T22:38:28.702Z,64.17
2018-11-06T22:40:30.916Z,67.43
2018-11-06T22:42:33.089Z,70.37
2018-11-06T22:44:35.351Z,63.57
2018-11-06T22:46:37.567Z,61.70
2018-11-06T22:48:39.882Z,64.73
2018-11-06T22:50:48.904Z,62.60
2018-11-06T22:52:51.115Z,64.53
2018-11-06T22:54:53.321Z,68.17
2018-11-06T22:56:55.633Z,69.83
2018-11-06T22:58:57.871Z,63.47
2018-11-06T23:01:05.886Z,59.53
2018-11-06T23:03:12.025Z,59.43
2018-11-06T23:05:14.651Z,63.80
2018-11-06T23:07:22.522Z,63.77
2018-11-06T23:09:24.699Z,62.77
2018-11-06T23:11:26.871Z,62.70
2018-11-06T23:13:29.235Z,63.37
2018-11-06T23:15:31.417Z,69.57
2018-11-06T23:17:33.729Z,62.20
2018-11-06T23:19:35.901Z,66.77
2018-11-06T23:21:38.074Z,61.53
2018-11-06T23:23:40.293Z,68.90
2018-11-06T23:25:42.508Z,59.37
2018-11-06T23:27:44.709Z,64.17
2018-11-06T23:29:47.282Z,65.00
2018-11-06T23:31:49.443Z,63.07
2018-11-06T23:33:51.739Z,64.53
2018-11-06T23:35:54.465Z,65.57
2018-11-06T23:37:56.599Z,64.10
2018-11-06T23:39:58.830Z,62.80
2018-11-06T23:42:01.091Z,65.90
2018-11-06T23:44:03.367Z,63.57
2018-11-06T23:46:05.619Z,58.87
2018-11-06T23:48:07.869Z,58.43
2018-11-06T23:50:10.429Z,63.37
2018-11-06T23:52:12.623Z,62.97
2018-11-06T23:54:15.323Z,62.93
2018-11-06T23:56:17.556Z,63.27
2018-11-06T23:58:19.924Z,64.77
